Terminal Aerodrome Forecast
Issued by NWS

Home | Current Version | Previous Version | Graphics & Text | Print | Product List | Glossary On
Versions: 1 2 3 4 5 6 7 8 9 10 11 12 13 14 15
000
FTUS43 KMPX 291700
TAFRWF
TAF
KRWF 291737Z 2918/3018 29007KT P6SM BKN020
     FM291900 24004KT P6SM SCT250
     FM300400 17006KT P6SM BKN110
     FM300900 25004KT P6SM OVC080
     FM301300 33012KT P6SM SCT020 OVC040=

USA.gov is the U.S. government's official web portal to all federal, state and local government web resources and services.